createdAt,value
2023-04-28T00:00:06.367Z,101255.38
2023-04-28T00:02:34.346Z,101258.78
2023-04-28T00:05:02.178Z,101251.09
2023-04-28T00:07:29.618Z,101239.78
2023-04-28T00:09:57.328Z,101241.06
2023-04-28T00:12:24.767Z,101243.66
2023-04-28T00:14:52.126Z,101242.72
2023-04-28T00:17:19.430Z,101237.94
2023-04-28T00:19:46.780Z,101238.22
2023-04-28T00:22:15.208Z,101240.63
2023-04-28T00:24:42.553Z,101230.34
2023-04-28T00:27:10.412Z,101222.16
2023-04-28T00:29:37.929Z,101233.94
2023-04-28T00:32:06.700Z,101231.88
2023-04-28T00:34:37.335Z,101230.13
2023-04-28T00:37:04.873Z,101230.59
2023-04-28T00:39:32.214Z,101223.34
2023-04-28T00:41:59.624Z,101237.97
2023-04-28T00:44:28.884Z,101228.94
2023-04-28T00:46:57.698Z,101236.19
2023-04-28T00:49:26.041Z,101230.88
2023-04-28T00:51:53.535Z,101238.44
2023-04-28T00:54:21.085Z,101239.25
2023-04-28T00:56:49.030Z,101235.75
2023-04-28T00:59:16.533Z,101232.66
2023-04-28T01:01:44.326Z,101239.28
2023-04-28T01:04:12.109Z,101234.31
2023-04-28T01:06:43.966Z,101238.19
2023-04-28T01:09:11.320Z,101236.25
2023-04-28T01:11:38.933Z,101237.03
2023-04-28T01:14:11.344Z,101224.03
2023-04-28T01:16:41.449Z,101224.88
2023-04-28T01:19:16.970Z,101221.84
2023-04-28T01:21:44.747Z,101233.25
2023-04-28T01:24:22.373Z,101231.75
2023-04-28T01:26:50.903Z,101228.75
2023-04-28T01:29:18.278Z,101222.78
2023-04-28T01:31:45.783Z,101222.16
2023-04-28T01:34:13.282Z,101224.25
2023-04-28T01:36:42.854Z,101226.00
2023-04-28T01:39:19.885Z,101230.69
2023-04-28T01:41:47.226Z,101231.13
2023-04-28T01:44:14.890Z,101230.34
2023-04-28T01:46:42.559Z,101235.63
2023-04-28T01:49:09.935Z,101228.25
2023-04-28T01:51:37.387Z,101233.88
2023-04-28T01:54:05.584Z,101241.72
2023-04-28T01:56:32.944Z,101240.94
2023-04-28T01:59:00.840Z,101246.41
2023-04-28T02:01:28.353Z,101245.75
2023-04-28T02:03:56.384Z,101245.94
2023-04-28T02:06:24.615Z,101253.97
2023-04-28T02:08:52.006Z,101254.31
2023-04-28T02:11:19.389Z,101264.41
2023-04-28T02:13:47.128Z,101265.31
2023-04-28T02:16:14.581Z,101267.78
2023-04-28T02:18:43.144Z,101261.31
2023-04-28T02:21:16.667Z,101255.41
2023-04-28T02:23:46.064Z,101262.00
2023-04-28T02:26:13.516Z,101252.38
2023-04-28T02:28:42.328Z,101246.59
2023-04-28T02:31:11.557Z,101242.88
2023-04-28T02:33:39.048Z,101258.47
2023-04-28T02:36:07.628Z,101257.16
2023-04-28T02:38:35.253Z,101264.69
2023-04-28T02:41:05.105Z,101255.53
2023-04-28T02:43:32.692Z,101258.56
2023-04-28T02:46:00.444Z,101260.31
2023-04-28T02:48:28.019Z,101258.94
2023-04-28T02:50:55.684Z,101253.44
2023-04-28T02:53:23.362Z,101254.25
2023-04-28T02:55:51.090Z,101251.31
2023-04-28T02:58:18.970Z,101261.09
2023-04-28T03:00:47.991Z,101268.56
2023-04-28T03:03:16.397Z,101268.06
2023-04-28T03:05:44.098Z,101270.06
2023-04-28T03:08:11.612Z,101274.44
2023-04-28T03:10:39.016Z,101279.56
2023-04-28T03:13:06.419Z,101288.22
2023-04-28T03:15:33.893Z,101285.69
2023-04-28T03:18:01.566Z,101287.66
2023-04-28T03:20:29.649Z,101295.56
2023-04-28T03:22:57.290Z,101305.66
2023-04-28T03:25:24.747Z,101295.97
2023-04-28T03:27:52.747Z,101295.88
2023-04-28T03:30:21.190Z,101288.31
2023-04-28T03:32:48.566Z,101279.59
2023-04-28T03:35:16.588Z,101271.06
2023-04-28T03:37:44.705Z,101265.00
2023-04-28T03:40:12.661Z,101266.63
2023-04-28T03:43:00.200Z,101271.28
2023-04-28T03:45:35.600Z,101262.78
2023-04-28T03:48:03.044Z,101259.91
2023-04-28T03:50:31.414Z,101267.56
2023-04-28T03:52:58.764Z,101266.63
2023-04-28T03:55:27.147Z,101273.06
2023-04-28T03:57:54.556Z,101272.88
2023-04-28T04:00:22.038Z,101273.75
2023-04-28T04:02:52.776Z,101270.59
2023-04-28T04:05:20.762Z,101272.66
2023-04-28T04:07:48.216Z,101270.44
2023-04-28T04:10:15.827Z,101269.50
2023-04-28T04:12:45.157Z,101274.25
2023-04-28T04:15:15.025Z,101281.50
2023-04-28T04:17:44.423Z,101277.81
2023-04-28T04:20:12.108Z,101271.44
2023-04-28T04:22:39.583Z,101278.03
2023-04-28T04:25:07.290Z,101288.00
2023-04-28T04:27:36.226Z,101298.94
2023-04-28T04:30:03.998Z,101289.97
2023-04-28T04:32:31.445Z,101294.63
2023-04-28T04:34:58.839Z,101290.09
2023-04-28T04:37:26.346Z,101292.44
2023-04-28T04:40:03.644Z,101293.59
2023-04-28T04:42:36.787Z,101292.50
2023-04-28T04:45:09.301Z,101285.91
2023-04-28T04:47:37.595Z,101277.09
2023-04-28T04:50:06.097Z,101276.94
2023-04-28T04:52:33.644Z,101279.50
2023-04-28T04:55:01.072Z,101278.03
2023-04-28T04:57:31.716Z,101280.63
2023-04-28T05:00:02.192Z,101277.75
2023-04-28T05:02:31.298Z,101271.00
2023-04-28T05:05:08.281Z,101283.19
2023-04-28T05:07:41.062Z,101292.50
2023-04-28T05:10:11.503Z,101286.75
2023-04-28T05:12:39.124Z,101281.44
2023-04-28T05:15:08.109Z,101293.66
2023-04-28T05:17:38.953Z,101292.69
2023-04-28T05:20:07.181Z,101300.06
2023-04-28T05:22:37.571Z,101297.53
2023-04-28T05:25:05.360Z,101301.53
2023-04-28T05:27:33.744Z,101305.56
2023-04-28T05:30:01.087Z,101311.00
2023-04-28T05:32:30.348Z,101320.81
2023-04-28T05:34:57.705Z,101309.41
2023-04-28T05:37:25.147Z,101307.13
2023-04-28T05:39:52.655Z,101308.41
2023-04-28T05:42:20.044Z,101318.69
2023-04-28T05:44:47.384Z,101319.63
2023-04-28T05:47:14.837Z,101315.91
2023-04-28T05:49:42.253Z,101307.38
2023-04-28T05:52:09.752Z,101312.22
2023-04-28T05:54:37.162Z,101295.25
2023-04-28T05:57:05.059Z,101310.97
2023-04-28T05:59:33.124Z,101303.06
2023-04-28T06:02:01.402Z,101314.72
2023-04-28T06:04:29.280Z,101317.56
2023-04-28T06:06:57.092Z,101320.91
2023-04-28T06:09:24.631Z,101320.66
2023-04-28T06:11:53.682Z,101323.06
2023-04-28T06:14:23.077Z,101334.97
2023-04-28T06:16:51.267Z,101341.88
2023-04-28T06:19:21.584Z,101350.66
2023-04-28T06:21:53.126Z,101343.34
2023-04-28T06:24:23.440Z,101335.06
2023-04-28T06:26:54.163Z,101335.56
2023-04-28T06:29:23.832Z,101332.47
2023-04-28T06:31:52.915Z,101316.47
2023-04-28T06:34:20.584Z,101314.94
2023-04-28T06:36:48.115Z,101319.22
2023-04-28T06:39:15.538Z,101320.56
2023-04-28T06:41:43.251Z,101320.38
2023-04-28T06:44:11.955Z,101326.50
2023-04-28T06:46:39.503Z,101336.50
2023-04-28T06:49:06.880Z,101346.00
2023-04-28T06:51:34.551Z,101341.22
2023-04-28T06:54:02.013Z,101344.31
2023-04-28T06:56:29.568Z,101346.47
2023-04-28T06:58:57.511Z,101342.84
2023-04-28T07:01:27.536Z,101347.38
2023-04-28T07:03:55.103Z,101334.28
2023-04-28T07:06:23.015Z,101322.97
2023-04-28T07:08:50.458Z,101322.28
2023-04-28T07:11:17.793Z,101314.69
2023-04-28T07:13:49.298Z,101319.97
2023-04-28T07:16:16.823Z,101317.16
2023-04-28T07:18:44.312Z,101307.16
2023-04-28T07:21:11.896Z,101313.94
2023-04-28T07:23:40.419Z,101312.81
2023-04-28T07:26:08.289Z,101324.72
2023-04-28T07:28:35.820Z,101326.56
2023-04-28T07:31:03.176Z,101325.91
2023-04-28T07:33:30.553Z,101319.34
2023-04-28T07:35:57.984Z,101317.94
2023-04-28T07:38:25.420Z,101324.13
2023-04-28T07:40:53.452Z,101324.59
2023-04-28T07:43:21.166Z,101329.34
2023-04-28T07:45:50.046Z,101322.31
2023-04-28T07:48:17.593Z,101321.59
2023-04-28T07:50:45.018Z,101324.00
2023-04-28T07:53:12.549Z,101317.03
2023-04-28T07:55:42.167Z,101316.78
2023-04-28T07:58:09.715Z,101308.97
2023-04-28T08:00:37.546Z,101315.81
2023-04-28T08:03:06.254Z,101317.66
2023-04-28T08:05:33.783Z,101322.28
2023-04-28T08:08:01.222Z,101321.06
2023-04-28T08:10:28.980Z,101316.88
2023-04-28T08:12:56.334Z,101323.75
2023-04-28T08:15:23.768Z,101315.16
2023-04-28T08:17:51.902Z,101319.13
2023-04-28T08:20:24.658Z,101320.38
2023-04-28T08:22:52.327Z,101318.97
2023-04-28T08:25:19.610Z,101320.25
2023-04-28T08:27:47.134Z,101315.53
2023-04-28T08:30:14.543Z,101317.25
2023-04-28T08:32:42.044Z,101305.34
2023-04-28T08:35:10.155Z,101297.47
2023-04-28T08:37:37.613Z,101295.13
2023-04-28T08:40:10.063Z,101304.09
2023-04-28T08:42:38.240Z,101295.81
2023-04-28T08:45:06.138Z,101283.91
2023-04-28T08:47:36.680Z,101278.50
2023-04-28T08:50:06.025Z,101285.03
2023-04-28T08:52:34.481Z,101287.13
2023-04-28T08:55:07.131Z,101286.50
2023-04-28T08:57:44.812Z,101284.88
2023-04-28T09:00:12.912Z,101290.50
2023-04-28T09:02:42.658Z,101297.13
2023-04-28T09:05:14.678Z,101298.56
2023-04-28T09:07:47.891Z,101293.03
2023-04-28T09:10:22.454Z,101286.09
2023-04-28T09:12:54.579Z,101287.81
2023-04-28T09:15:37.735Z,101280.69
2023-04-28T09:18:06.966Z,101287.44
2023-04-28T09:20:36.203Z,101289.41
2023-04-28T09:23:20.981Z,101293.53
2023-04-28T09:26:01.686Z,101276.78
2023-04-28T09:28:29.681Z,101276.06
2023-04-28T09:30:57.398Z,101281.28
2023-04-28T09:33:25.287Z,101275.22
2023-04-28T09:35:53.465Z,101276.59
2023-04-28T09:38:24.063Z,101284.00
2023-04-28T09:41:01.561Z,101294.34
2023-04-28T09:43:34.073Z,101294.31
2023-04-28T09:46:03.337Z,101296.41
2023-04-28T09:48:33.105Z,101287.84
2023-04-28T09:51:02.692Z,101280.34
2023-04-28T09:53:30.940Z,101287.88
2023-04-28T09:56:01.466Z,101277.22
2023-04-28T09:58:30.651Z,101279.72
2023-04-28T10:00:59.762Z,101272.22
2023-04-28T10:03:30.064Z,101272.44
2023-04-28T10:05:59.069Z,101257.41
2023-04-28T10:08:27.991Z,101261.66
2023-04-28T10:10:56.967Z,101248.28
2023-04-28T10:13:24.824Z,101244.78
2023-04-28T10:15:55.528Z,101239.06
2023-04-28T10:18:24.389Z,101233.00
2023-04-28T10:21:03.842Z,101240.19
2023-04-28T10:23:54.512Z,101232.44
2023-04-28T10:26:27.520Z,101224.13
2023-04-28T10:28:55.158Z,101215.38
2023-04-28T10:31:23.223Z,101219.03
2023-04-28T10:33:50.835Z,101208.97
2023-04-28T10:36:59.395Z,101208.78
2023-04-28T10:39:27.047Z,101209.84
2023-04-28T10:41:54.476Z,101199.16
2023-04-28T10:44:31.092Z,101201.25
2023-04-28T10:47:13.972Z,101197.91
2023-04-28T10:49:57.654Z,101189.91
2023-04-28T10:52:48.672Z,101183.81
2023-04-28T10:55:37.101Z,101182.81
2023-04-28T10:58:27.456Z,101187.66
2023-04-28T11:00:54.960Z,101187.22
2023-04-28T11:03:52.330Z,101180.03
2023-04-28T11:06:28.265Z,101184.03
2023-04-28T11:08:57.897Z,101183.97
2023-04-28T11:11:27.164Z,101182.06
2023-04-28T11:14:15.765Z,101181.78
2023-04-28T11:16:50.611Z,101188.38
2023-04-28T11:19:23.382Z,101195.91
2023-04-28T11:21:52.364Z,101191.56
2023-04-28T11:24:20.015Z,101181.78
2023-04-28T11:26:47.559Z,101184.56
2023-04-28T11:29:15.672Z,101181.78
2023-04-28T11:31:51.413Z,101183.38
2023-04-28T11:34:21.752Z,101173.06
2023-04-28T11:36:49.136Z,101172.25
2023-04-28T11:39:16.652Z,101166.31
2023-04-28T11:41:45.132Z,101176.22
2023-04-28T11:44:16.377Z,101167.13
2023-04-28T11:46:56.195Z,101167.88
2023-04-28T11:49:24.683Z,101157.97
2023-04-28T11:51:52.569Z,101159.16
2023-04-28T11:54:24.594Z,101159.16
2023-04-28T11:56:53.103Z,101154.41
2023-04-28T11:59:31.790Z,101150.72
2023-04-28T12:02:03.479Z,101138.03
2023-04-28T12:04:32.237Z,101135.31
2023-04-28T12:07:07.223Z,101134.53
2023-04-28T12:09:35.526Z,101124.53
2023-04-28T12:12:08.578Z,101128.59
2023-04-28T12:14:54.080Z,101120.59
2023-04-28T12:17:29.876Z,101117.88
2023-04-28T12:19:59.016Z,101117.09
2023-04-28T12:22:27.309Z,101111.56
2023-04-28T12:25:12.680Z,101123.47
2023-04-28T12:27:41.198Z,101118.31
2023-04-28T12:30:20.828Z,101105.56
2023-04-28T12:32:48.561Z,101103.19
2023-04-28T12:35:16.194Z,101096.03
2023-04-28T12:37:44.481Z,101104.00
2023-04-28T12:40:12.449Z,101105.59
2023-04-28T12:42:39.878Z,101092.06
2023-04-28T12:45:08.863Z,101097.28
2023-04-28T12:47:37.866Z,101086.56
2023-04-28T12:50:06.833Z,101086.56
2023-04-28T12:52:35.662Z,101081.16
2023-04-28T12:55:04.095Z,101082.47
2023-04-28T12:57:39.060Z,101083.66
2023-04-28T13:00:08.347Z,101075.34
2023-04-28T13:02:36.077Z,101064.31
2023-04-28T13:05:03.823Z,101063.22
2023-04-28T13:07:31.777Z,101059.94
2023-04-28T13:09:59.513Z,101053.09
2023-04-28T13:12:26.906Z,101055.09
2023-04-28T13:14:54.295Z,101044.06
2023-04-28T13:17:21.706Z,101040.66
2023-04-28T13:19:49.216Z,101046.34
2023-04-28T13:22:16.799Z,101037.84
2023-04-28T13:24:44.345Z,101028.66
2023-04-28T13:27:11.948Z,101025.69
2023-04-28T13:29:39.890Z,101034.13
2023-04-28T13:32:07.595Z,101025.84
2023-04-28T13:34:35.172Z,101023.44
2023-04-28T13:37:02.552Z,101024.44
2023-04-28T13:39:29.914Z,101016.91
2023-04-28T13:41:57.308Z,101011.84
2023-04-28T13:44:24.844Z,101009.66
2023-04-28T13:46:53.459Z,101009.56
2023-04-28T13:49:23.715Z,100999.56
2023-04-28T13:51:51.084Z,101003.59
2023-04-28T13:54:18.449Z,100990.75
2023-04-28T13:56:46.199Z,100990.44
2023-04-28T13:59:13.665Z,100990.47
2023-04-28T14:01:41.047Z,100975.91
2023-04-28T14:04:08.654Z,100975.91
2023-04-28T14:06:37.377Z,100962.31
2023-04-28T14:09:04.900Z,100961.13
2023-04-28T14:11:32.234Z,100960.09
2023-04-28T14:13:59.696Z,100959.75
2023-04-28T14:16:27.591Z,100963.28
2023-04-28T14:18:55.649Z,100945.44
2023-04-28T14:21:23.157Z,100943.78
2023-04-28T14:23:50.552Z,100950.13
2023-04-28T14:26:18.719Z,100946.25
2023-04-28T14:28:46.138Z,100940.66
2023-04-28T14:31:13.568Z,100931.84
2023-04-28T14:33:41.330Z,100932.25
2023-04-28T14:36:09.238Z,100920.03
2023-04-28T14:38:38.259Z,100918.50
2023-04-28T14:41:06.912Z,100920.09
2023-04-28T14:43:35.040Z,100927.22
2023-04-28T14:46:02.669Z,100929.22
2023-04-28T14:48:32.370Z,100918.50
2023-04-28T14:50:59.761Z,100925.91
2023-04-28T14:53:27.397Z,100922.84
2023-04-28T14:55:59.439Z,100926.03
2023-04-28T14:58:35.303Z,100914.75
2023-04-28T15:01:03.367Z,100920.47
2023-04-28T15:03:30.902Z,100913.00
2023-04-28T15:06:02.756Z,100909.41
2023-04-28T15:08:30.254Z,100912.16
2023-04-28T15:10:57.628Z,100922.03
2023-04-28T15:13:27.860Z,100909.78
2023-04-28T15:15:55.247Z,100921.69
2023-04-28T15:18:22.683Z,100920.09
2023-04-28T15:20:51.396Z,100906.25
2023-04-28T15:23:19.833Z,100908.66
2023-04-28T15:25:48.025Z,100901.53
2023-04-28T15:28:15.577Z,100905.47
2023-04-28T15:30:43.414Z,100899.13
2023-04-28T15:33:17.328Z,100894.00
2023-04-28T15:35:44.957Z,100891.22
2023-04-28T15:38:12.933Z,100890.44
2023-04-28T15:40:40.753Z,100889.22
2023-04-28T15:43:08.344Z,100884.91
2023-04-28T15:45:36.466Z,100890.81
2023-04-28T15:48:06.242Z,100878.56
2023-04-28T15:50:34.005Z,100887.66
2023-04-28T15:53:01.473Z,100892.81
2023-04-28T15:55:28.847Z,100881.31
2023-04-28T15:57:56.340Z,100878.56
2023-04-28T16:00:23.656Z,100875.75
2023-04-28T16:02:53.552Z,100882.09
2023-04-28T16:05:22.761Z,100878.53
2023-04-28T16:07:50.362Z,100869.47
2023-04-28T16:10:17.888Z,100877.34
2023-04-28T16:12:45.348Z,100882.91
2023-04-28T16:15:13.622Z,100879.31
2023-04-28T16:17:41.946Z,100876.13
2023-04-28T16:20:10.904Z,100869.84
2023-04-28T16:22:39.792Z,100859.53
2023-04-28T16:25:07.931Z,100865.84
2023-04-28T16:27:36.291Z,100856.75
2023-04-28T16:30:07.221Z,100867.03
2023-04-28T16:32:38.910Z,100864.66
2023-04-28T16:35:11.786Z,100865.84
2023-04-28T16:37:43.595Z,100857.94
2023-04-28T16:40:12.288Z,100853.91
2023-04-28T16:42:39.710Z,100844.84
2023-04-28T16:45:07.514Z,100857.06
2023-04-28T16:47:34.859Z,100852.25
2023-04-28T16:50:02.287Z,100859.31
2023-04-28T16:52:29.862Z,100852.63
2023-04-28T16:54:57.233Z,100852.16
2023-04-28T16:57:25.466Z,100848.22
2023-04-28T16:59:53.224Z,100847.00
2023-04-28T17:02:20.703Z,100846.91
2023-04-28T17:04:48.125Z,100846.19
2023-04-28T17:07:18.457Z,100842.53
2023-04-28T17:09:45.766Z,100841.00
2023-04-28T17:12:13.268Z,100855.56
2023-04-28T17:14:40.885Z,100861.50
2023-04-28T17:17:08.313Z,100860.66
2023-04-28T17:19:35.780Z,100850.41
2023-04-28T17:22:03.183Z,100848.84
2023-04-28T17:24:30.830Z,100843.97
2023-04-28T17:26:58.225Z,100860.16
2023-04-28T17:29:26.115Z,100857.78
2023-04-28T17:31:53.776Z,100847.44
2023-04-28T17:34:21.310Z,100847.47
2023-04-28T17:36:48.762Z,100843.44
2023-04-28T17:39:16.745Z,100846.97
2023-04-28T17:41:45.152Z,100852.78
2023-04-28T17:44:12.829Z,100850.72
2023-04-28T17:46:40.663Z,100853.13
2023-04-28T17:49:08.686Z,100853.47
2023-04-28T17:51:38.018Z,100847.09
2023-04-28T17:54:09.290Z,100847.44
2023-04-28T17:56:38.432Z,100849.66
2023-04-28T17:59:07.364Z,100852.47
2023-04-28T18:01:35.287Z,100850.59
2023-04-28T18:04:02.642Z,100849.78
2023-04-28T18:06:30.110Z,100846.19
2023-04-28T18:08:57.523Z,100851.28
2023-04-28T18:11:27.133Z,100850.09
2023-04-28T18:13:54.572Z,100853.06
2023-04-28T18:16:22.080Z,100854.22
2023-04-28T18:18:49.444Z,100851.00
2023-04-28T18:21:17.004Z,100843.88
2023-04-28T18:23:44.771Z,100843.06
2023-04-28T18:26:12.076Z,100847.25
2023-04-28T18:28:39.418Z,100850.75
2023-04-28T18:31:07.104Z,100846.63
2023-04-28T18:33:35.506Z,100836.72
2023-04-28T18:36:07.758Z,100836.50
2023-04-28T18:38:36.541Z,100846.63
2023-04-28T18:41:15.030Z,100858.78
2023-04-28T18:43:43.475Z,100864.09
2023-04-28T18:46:10.941Z,100858.88
2023-04-28T18:48:38.517Z,100860.03
2023-04-28T18:51:06.425Z,100866.25
2023-04-28T18:53:33.749Z,100872.75
2023-04-28T18:56:03.282Z,100878.59
2023-04-28T18:58:31.159Z,100878.31
2023-04-28T19:00:58.533Z,100876.56
2023-04-28T19:03:26.314Z,100893.44
2023-04-28T19:05:54.215Z,100899.63
2023-04-28T19:08:21.492Z,100893.84
2023-04-28T19:10:49.210Z,100897.13
2023-04-28T19:13:16.619Z,100902.09
2023-04-28T19:15:43.979Z,100901.44
2023-04-28T19:18:12.535Z,100900.19
2023-04-28T19:20:42.118Z,100898.38
2023-04-28T19:23:09.715Z,100903.88
2023-04-28T19:25:37.731Z,100913.91
2023-04-28T19:28:05.146Z,100918.25
2023-04-28T19:30:32.538Z,100916.34
2023-04-28T19:32:59.918Z,100925.06
2023-04-28T19:35:27.418Z,100915.56
2023-04-28T19:37:55.880Z,100922.16
2023-04-28T19:40:23.475Z,100918.09
2023-04-28T19:42:51.572Z,100928.19
2023-04-28T19:45:19.176Z,100930.66
2023-04-28T19:47:46.536Z,100935.63
2023-04-28T19:50:13.951Z,100940.63
2023-04-28T19:52:41.778Z,100943.75
2023-04-28T19:55:09.578Z,100949.03
2023-04-28T19:57:37.287Z,100941.94
2023-04-28T20:00:05.203Z,100951.28
2023-04-28T20:02:35.676Z,100956.19
2023-04-28T20:05:03.914Z,100950.69
2023-04-28T20:07:31.595Z,100948.69
2023-04-28T20:09:59.683Z,100945.34
2023-04-28T20:12:26.982Z,100943.47
2023-04-28T20:14:54.479Z,100935.31
2023-04-28T20:17:21.989Z,100936.53
2023-04-28T20:19:49.719Z,100937.31
2023-04-28T20:22:17.206Z,100950.91
2023-04-28T20:24:44.614Z,100948.88
2023-04-28T20:27:12.773Z,100934.34
2023-04-28T20:29:40.199Z,100932.06
2023-04-28T20:32:07.628Z,100928.69
2023-04-28T20:34:36.366Z,100922.03
2023-04-28T20:37:04.311Z,100929.72
2023-04-28T20:39:31.694Z,100930.38
2023-04-28T20:42:01.084Z,100927.81
2023-04-28T20:44:28.428Z,100931.09
2023-04-28T20:46:55.865Z,100934.38
2023-04-28T20:49:24.520Z,100929.59
2023-04-28T20:51:52.023Z,100928.16
2023-04-28T20:54:19.480Z,100928.25
2023-04-28T20:56:46.855Z,100924.19
2023-04-28T20:59:14.636Z,100918.59
2023-04-28T21:01:42.177Z,100929.03
2023-04-28T21:04:09.999Z,100916.81
2023-04-28T21:06:37.447Z,100919.47
2023-04-28T21:09:04.788Z,100910.50
2023-04-28T21:11:32.279Z,100918.47
2023-04-28T21:13:59.883Z,100914.69
2023-04-28T21:16:27.310Z,100916.47
2023-04-28T21:18:58.205Z,100920.69
2023-04-28T21:21:25.720Z,100920.94
2023-04-28T21:23:53.327Z,100915.47
2023-04-28T21:26:21.921Z,100919.47
2023-04-28T21:28:50.361Z,100909.56
2023-04-28T21:31:18.254Z,100913.59
2023-04-28T21:33:45.670Z,100915.19
2023-04-28T21:36:13.507Z,100909.88
2023-04-28T21:38:40.854Z,100920.13
2023-04-28T21:41:08.797Z,100925.28
2023-04-28T21:43:36.111Z,100908.72
2023-04-28T21:46:03.635Z,100898.00
2023-04-28T21:48:30.999Z,100898.53
2023-04-28T21:50:59.455Z,100909.69
2023-04-28T21:53:26.820Z,100909.75
2023-04-28T21:55:54.202Z,100911.28
2023-04-28T21:58:21.542Z,100925.13
2023-04-28T22:00:49.265Z,100934.03
2023-04-28T22:03:16.844Z,100942.00
2023-04-28T22:05:45.075Z,100937.63
2023-04-28T22:08:13.564Z,100917.94
2023-04-28T22:10:41.322Z,100914.22
2023-04-28T22:13:09.188Z,100912.81
2023-04-28T22:15:36.714Z,100915.56
2023-04-28T22:18:04.788Z,100930.97
2023-04-28T22:20:32.532Z,100920.56
2023-04-28T22:23:00.316Z,100922.19
2023-04-28T22:25:27.694Z,100920.44
2023-04-28T22:27:55.088Z,100930.97
2023-04-28T22:30:25.026Z,100933.34
2023-04-28T22:32:53.593Z,100936.53
2023-04-28T22:35:21.100Z,100929.19
2023-04-28T22:37:48.700Z,100935.78
2023-04-28T22:40:16.096Z,100935.34
2023-04-28T22:42:43.599Z,100936.50
2023-04-28T22:45:11.889Z,100931.16
2023-04-28T22:47:43.551Z,100928.09
2023-04-28T22:50:11.664Z,100923.91
2023-04-28T22:52:39.124Z,100915.59
2023-04-28T22:55:06.832Z,100913.09
2023-04-28T22:57:34.559Z,100912.28
2023-04-28T23:00:05.957Z,100904.25
2023-04-28T23:02:33.863Z,100893.19
2023-04-28T23:05:01.420Z,100900.13
2023-04-28T23:07:28.881Z,100901.59
2023-04-28T23:09:56.203Z,100905.75
2023-04-28T23:12:23.510Z,100900.28
2023-04-28T23:14:50.868Z,100896.97
2023-04-28T23:17:18.258Z,100907.50
2023-04-28T23:19:45.826Z,100899.16
2023-04-28T23:22:13.381Z,100903.84
2023-04-28T23:24:40.870Z,100902.31
2023-04-28T23:27:08.393Z,100900.97
2023-04-28T23:29:36.173Z,100901.13
2023-04-28T23:32:04.447Z,100888.25
2023-04-28T23:34:31.914Z,100887.50
2023-04-28T23:36:59.373Z,100894.91
2023-04-28T23:39:29.817Z,100892.47
2023-04-28T23:41:57.123Z,100889.31
2023-04-28T23:44:24.471Z,100884.50
2023-04-28T23:46:51.830Z,100880.41
2023-04-28T23:49:20.798Z,100881.50
2023-04-28T23:51:48.116Z,100876.59
2023-04-28T23:54:15.458Z,100873.28
2023-04-28T23:56:42.777Z,100855.56
2023-04-28T23:59:10.193Z,100840.63
